KCDH Airport (Harrell Field) Information

FAA: CDH - ICAO: KCDH

KCDH Airport Location

State Arkansas
County Ouachita
City Camden
KCDH Airport is 5 miles northeast of Camden, AR.
Latitude 33-37-22.1000N
Longitude 092-45-48.2000W
Elevation 129ft

KCDH Airport METARs

METAR KCDH 301735Z AUTO 19005KT 10SM CLR 20/10 A3015 RMK AO2
Altimeter 30.15"
Temperature 20.0°C (68.0°F)
Wind 190° at 5KT
Clouds Skies are clear.
Visibility 10.0mi
Time observed: 2021-11-30T17:35:00Z

KCDH Airport Details

Status Operational
Activation October 1944
Ownership Public
Usage Public
Chart MEMPHIS
ATC on-site No
Beacon schedule sunset-sunrise
Beacon color clear green

KCDH Airport Contacts

Owner CITY OF CAMDEN
Owner address PO BOX 278, CAMDEN, AR 71711
Owner phone 870-836-6436
Manager EDGAR R. THOMPSON
Manager address 1837 LEWISBURG RD, AUSTIN, AR 72007-9443
Manager phone 501-843-3230

KCDH Airport (Harrell Field) Radio Frequencies

KCDH (Airport) Radio Frequencies

UNICOM 122.7
Common traffic advisory frequency (CTAF) 122.7